Time,TemperatureF,DewpointF,PressureIn,WindDirection,WindDirectionDegrees,WindSpeedMPH,WindSpeedGustMPH,Humidity,HourlyPrecipIn,Conditions,Clouds,dailyrainin,SoftwareType,DateUTC
2013-06-16 00:01:00,70.0,59.0,29.98,North,0,0.0,-999.0,68,-99.99,,,-99.99,,2013-06-16 05:01:00,
2013-06-16 00:11:00,70.0,61.0,29.98,North,0,0.0,-999.0,73,-99.99,,,-99.99,,2013-06-16 05:11:00,
2013-06-16 00:22:00,70.0,61.0,29.98,North,0,0.0,-999.0,73,-99.99,,,-99.99,,2013-06-16 05:22:00,
2013-06-16 00:34:00,68.0,61.0,29.98,North,0,0.0,-999.0,77,-99.99,,,-99.99,,2013-06-16 05:34:00,
2013-06-16 00:43:00,68.0,61.0,29.98,North,0,0.0,-999.0,77,-99.99,,,-99.99,,2013-06-16 05:43:00,
2013-06-16 00:52:00,68.0,57.0,30.00,North,0,0.0,-999.0,68,-99.99,,,-99.99,,2013-06-16 05:52:00,
2013-06-16 01:01:00,68.0,57.0,30.00,North,0,0.0,-999.0,68,-99.99,,,-99.99,,2013-06-16 06:01:00,
2013-06-16 01:11:00,68.0,57.0,29.99,North,0,0.0,-999.0,68,-99.99,,,-99.99,,2013-06-16 06:11:00,
2013-06-16 01:22:00,68.0,57.0,29.99,North,0,0.0,-999.0,68,-99.99,,,-99.99,,2013-06-16 06:22:00,
2013-06-16 01:33:00,66.0,55.0,29.98,North,0,0.0,-999.0,68,-99.99,,,-99.99,,2013-06-16 06:33:00,
2013-06-16 01:43:00,66.0,55.0,29.98,North,0,0.0,-999.0,68,-99.99,,,-99.99,,2013-06-16 06:43:00,
2013-06-16 01:52:00,66.0,57.0,29.98,North,0,0.0,-999.0,72,-99.99,,,-99.99,,2013-06-16 06:52:00,
2013-06-16 02:01:00,66.0,57.0,29.98,North,0,0.0,-999.0,72,-99.99,,,-99.99,,2013-06-16 07:01:00,
2013-06-16 02:11:00,64.0,57.0,29.98,North,0,0.0,-999.0,77,-99.99,,,-99.99,,2013-06-16 07:11:00,
2013-06-16 02:22:00,64.0,57.0,29.98,North,0,0.0,-999.0,77,-99.99,,,-99.99,,2013-06-16 07:22:00,
2013-06-16 02:32:00,64.0,57.0,29.98,North,0,0.0,-999.0,77,-99.99,,,-99.99,,2013-06-16 07:32:00,
2013-06-16 02:43:00,64.0,57.0,29.98,North,0,0.0,-999.0,77,-99.99,,,-99.99,,2013-06-16 07:43:00,
2013-06-16 02:53:00,63.0,57.0,29.98,North,0,0.0,-999.0,82,-99.99,,,-99.99,,2013-06-16 07:53:00,
2013-06-16 03:02:00,63.0,57.0,29.98,North,0,0.0,-999.0,82,-99.99,,,-99.99,,2013-06-16 08:02:00,
2013-06-16 03:11:00,63.0,57.0,29.98,North,0,0.0,-999.0,82,-99.99,,,-99.99,,2013-06-16 08:11:00,
2013-06-16 03:22:00,63.0,57.0,29.98,North,0,0.0,-999.0,82,-99.99,,,-99.99,,2013-06-16 08:22:00,
2013-06-16 03:33:00,64.0,55.0,29.99,North,0,0.0,-999.0,72,-99.99,,,-99.99,,2013-06-16 08:33:00,
2013-06-16 03:43:00,64.0,55.0,29.99,North,0,0.0,-999.0,72,-99.99,,,-99.99,,2013-06-16 08:43:00,
2013-06-16 03:54:00,63.0,57.0,29.99,North,0,0.0,-999.0,82,-99.99,,,-99.99,,2013-06-16 08:54:00,
2013-06-16 04:01:00,63.0,57.0,29.99,North,0,0.0,-999.0,82,-99.99,,,-99.99,,2013-06-16 09:01:00,
2013-06-16 04:11:00,63.0,57.0,29.98,North,0,0.0,-999.0,82,-99.99,,,-99.99,,2013-06-16 09:11:00,
2013-06-16 04:22:00,63.0,57.0,29.98,North,0,0.0,-999.0,82,-99.99,,,-99.99,,2013-06-16 09:22:00,
2013-06-16 04:33:00,59.0,55.0,29.98,North,0,0.0,-999.0,87,-99.99,,,-99.99,,2013-06-16 09:33:00,
2013-06-16 04:42:00,59.0,55.0,29.98,North,0,0.0,-999.0,87,-99.99,,,-99.99,,2013-06-16 09:42:00,
2013-06-16 04:52:00,61.0,55.0,29.98,North,0,0.0,-999.0,82,-99.99,,,-99.99,,2013-06-16 09:52:00,
2013-06-16 05:01:00,61.0,55.0,29.98,North,0,0.0,-999.0,82,-99.99,,,-99.99,,2013-06-16 10:01:00,
2013-06-16 05:12:00,61.0,55.0,29.99,North,0,0.0,-999.0,82,-99.99,,,-99.99,,2013-06-16 10:12:00,
2013-06-16 05:22:00,61.0,55.0,29.99,North,0,0.0,-999.0,82,-99.99,,,-99.99,,2013-06-16 10:22:00,
2013-06-16 05:33:00,61.0,55.0,30.00,North,0,0.0,-999.0,82,-99.99,,,-99.99,,2013-06-16 10:33:00,
2013-06-16 05:43:00,61.0,55.0,30.00,North,0,0.0,-999.0,82,-99.99,,,-99.99,,2013-06-16 10:43:00,
2013-06-16 05:53:00,61.0,57.0,30.00,North,0,0.0,-999.0,87,-99.99,,,-99.99,,2013-06-16 10:53:00,
2013-06-16 06:02:00,61.0,57.0,30.00,North,0,0.0,-999.0,87,-99.99,,,-99.99,,2013-06-16 11:02:00,
2013-06-16 06:11:00,57.0,55.0,30.00,North,0,0.0,-999.0,93,-99.99,,,-99.99,,2013-06-16 11:11:00,
2013-06-16 06:22:00,57.0,55.0,30.00,North,0,0.0,-999.0,93,-99.99,,,-99.99,,2013-06-16 11:22:00,
2013-06-16 06:33:00,59.0,55.0,30.00,North,0,0.0,-999.0,87,-99.99,,,-99.99,,2013-06-16 11:33:00,
2013-06-16 06:43:00,59.0,55.0,30.00,North,0,0.0,-999.0,87,-99.99,,,-99.99,,2013-06-16 11:43:00,
2013-06-16 06:52:00,61.0,55.0,30.00,North,0,0.0,-999.0,82,-99.99,,,-99.99,,2013-06-16 11:52:00,
2013-06-16 07:02:00,61.0,55.0,30.00,North,0,0.0,-999.0,82,-99.99,,,-99.99,,2013-06-16 12:02:00,
2013-06-16 07:11:00,63.0,57.0,30.01,North,0,0.0,-999.0,82,-99.99,,,-99.99,,2013-06-16 12:11:00,
2013-06-16 07:22:00,63.0,57.0,30.01,North,0,0.0,-999.0,82,-99.99,,,-99.99,,2013-06-16 12:22:00,
2013-06-16 07:32:00,64.0,57.0,30.00,North,0,0.0,-999.0,77,-99.99,,,-99.99,,2013-06-16 12:32:00,
2013-06-16 07:42:00,64.0,57.0,30.00,North,0,0.0,-999.0,77,-99.99,,,-99.99,,2013-06-16 12:42:00,
2013-06-16 07:53:00,64.0,59.0,30.00,North,0,0.0,-999.0,82,-99.99,,,-99.99,,2013-06-16 12:53:00,
2013-06-16 08:01:00,64.0,59.0,30.00,North,0,0.0,-999.0,82,-99.99,,,-99.99,,2013-06-16 13:01:00,
2013-06-16 08:11:00,68.0,61.0,30.00,North,0,0.0,-999.0,77,-99.99,,,-99.99,,2013-06-16 13:11:00,
2013-06-16 08:22:00,68.0,61.0,30.00,North,0,0.0,-999.0,77,-99.99,,,-99.99,,2013-06-16 13:22:00,
2013-06-16 08:34:00,70.0,61.0,30.01,North,0,0.0,-999.0,73,-99.99,,,-99.99,,2013-06-16 13:34:00,
2013-06-16 08:42:00,70.0,61.0,30.01,North,0,0.0,-999.0,73,-99.99,,,-99.99,,2013-06-16 13:42:00,
2013-06-16 08:53:00,70.0,61.0,30.01,North,0,0.0,-999.0,73,-99.99,,,-99.99,,2013-06-16 13:53:00,
2013-06-16 09:02:00,70.0,61.0,30.01,North,0,0.0,-999.0,73,-99.99,,,-99.99,,2013-06-16 14:02:00,
2013-06-16 09:12:00,72.0,59.0,30.02,North,350,5.0,-999.0,64,-99.99,,,-99.99,,2013-06-16 14:12:00,
2013-06-16 09:22:00,72.0,59.0,30.02,North,350,5.0,-999.0,64,-99.99,,,-99.99,,2013-06-16 14:22:00,
2013-06-16 09:34:00,73.0,61.0,30.02,WNW,290,5.0,-999.0,64,-99.99,,,-99.99,,2013-06-16 14:34:00,
2013-06-16 09:43:00,73.0,61.0,30.02,WNW,290,5.0,-999.0,64,-99.99,,,-99.99,,2013-06-16 14:43:00,
2013-06-16 09:52:00,73.0,59.0,30.01,WNW,290,5.0,-999.0,60,-99.99,,,-99.99,,2013-06-16 14:52:00,
2013-06-16 10:02:00,73.0,59.0,30.01,WNW,290,5.0,-999.0,60,-99.99,,,-99.99,,2013-06-16 15:02:00,
2013-06-16 10:12:00,75.0,57.0,30.01,WNW,290,5.0,-999.0,53,-99.99,,,-99.99,,2013-06-16 15:12:00,
2013-06-16 10:23:00,75.0,57.0,30.01,WNW,290,5.0,-999.0,53,-99.99,,,-99.99,,2013-06-16 15:23:00,
2013-06-16 10:33:00,75.0,55.0,30.01,North,0,0.0,-999.0,50,-99.99,,,-99.99,,2013-06-16 15:33:00,
2013-06-16 10:43:00,75.0,55.0,30.01,North,0,0.0,-999.0,50,-99.99,,,-99.99,,2013-06-16 15:43:00,
2013-06-16 10:52:00,77.0,54.0,30.00,North,0,0.0,-999.0,44,-99.99,,,-99.99,,2013-06-16 15:52:00,
2013-06-16 11:02:00,77.0,54.0,30.00,North,0,0.0,-999.0,44,-99.99,,,-99.99,,2013-06-16 16:02:00,
2013-06-16 11:12:00,79.0,52.0,30.01,North,0,0.0,-999.0,39,-99.99,,,-99.99,,2013-06-16 16:12:00,
2013-06-16 11:22:00,79.0,52.0,30.01,North,0,0.0,-999.0,39,-99.99,,,-99.99,,2013-06-16 16:22:00,
2013-06-16 11:33:00,79.0,54.0,30.00,North,0,0.0,-999.0,41,-99.99,,,-99.99,,2013-06-16 16:33:00,
2013-06-16 11:43:00,79.0,54.0,30.00,North,0,0.0,-999.0,41,-99.99,,,-99.99,,2013-06-16 16:43:00,
2013-06-16 11:53:00,79.0,52.0,30.01,North,0,0.0,-999.0,39,-99.99,,,-99.99,,2013-06-16 16:53:00,
2013-06-16 12:02:00,79.0,52.0,30.01,North,0,0.0,-999.0,39,-99.99,,,-99.99,,2013-06-16 17:02:00,
2013-06-16 12:11:00,79.0,52.0,30.00,North,0,0.0,-999.0,39,-99.99,,,-99.99,,2013-06-16 17:11:00,
2013-06-16 12:22:00,79.0,52.0,30.00,North,0,0.0,-999.0,39,-99.99,,,-99.99,,2013-06-16 17:22:00,
2013-06-16 12:34:00,81.0,52.0,30.01,North,0,0.0,-999.0,36,-99.99,,,-99.99,,2013-06-16 17:34:00,
2013-06-16 12:43:00,81.0,52.0,30.01,North,0,0.0,-999.0,36,-99.99,,,-99.99,,2013-06-16 17:43:00,
2013-06-16 12:53:00,81.0,52.0,30.01,West,260,8.0,-999.0,36,-99.99,,,-99.99,,2013-06-16 17:53:00,
2013-06-16 13:02:00,81.0,52.0,30.01,West,260,8.0,-999.0,36,-99.99,,,-99.99,,2013-06-16 18:02:00,
2013-06-16 13:12:00,81.0,52.0,30.02,WSW,240,7.0,-999.0,36,-99.99,,,-99.99,,2013-06-16 18:12:00,
2013-06-16 13:22:00,81.0,52.0,30.02,WSW,240,7.0,-999.0,36,-99.99,,,-99.99,,2013-06-16 18:22:00,
2013-06-16 13:33:00,81.0,54.0,30.03,SW,230,9.0,-999.0,39,-99.99,,,-99.99,,2013-06-16 18:33:00,
2013-06-16 13:43:00,81.0,54.0,30.03,SW,230,9.0,-999.0,39,-99.99,,,-99.99,,2013-06-16 18:43:00,
2013-06-16 13:52:00,81.0,52.0,30.03,SW,220,7.0,-999.0,36,-99.99,,,-99.99,,2013-06-16 18:52:00,
2013-06-16 14:01:00,81.0,52.0,30.03,SW,220,7.0,-999.0,36,-99.99,,,-99.99,,2013-06-16 19:01:00,
2013-06-16 14:11:00,81.0,52.0,30.03,WSW,240,9.0,-999.0,36,-99.99,,,-99.99,,2013-06-16 19:11:00,
2013-06-16 14:22:00,81.0,52.0,30.03,WSW,240,9.0,-999.0,36,-99.99,,,-99.99,,2013-06-16 19:22:00,
2013-06-16 14:34:00,81.0,52.0,30.02,WSW,250,7.0,-999.0,36,-99.99,,,-99.99,,2013-06-16 19:34:00,
2013-06-16 14:43:00,81.0,52.0,30.02,WSW,250,7.0,-999.0,36,-99.99,,,-99.99,,2013-06-16 19:43:00,
2013-06-16 14:53:00,81.0,52.0,30.02,WSW,250,7.0,-999.0,36,-99.99,,,-99.99,,2013-06-16 19:53:00,
2013-06-16 15:02:00,81.0,52.0,30.02,WSW,250,7.0,-999.0,36,-99.99,,,-99.99,,2013-06-16 20:02:00,
2013-06-16 15:11:00,81.0,54.0,30.02,SW,230,14.0,21.0,39,-99.99,,,-99.99,,2013-06-16 20:11:00,
2013-06-16 15:22:00,81.0,54.0,30.02,SW,230,14.0,21.0,39,-99.99,,,-99.99,,2013-06-16 20:22:00,
2013-06-16 15:33:00,79.0,55.0,30.03,WSW,240,13.0,22.0,44,-99.99,,,-99.99,,2013-06-16 20:33:00,
2013-06-16 15:42:00,79.0,55.0,30.03,WSW,240,13.0,22.0,44,-99.99,,,-99.99,,2013-06-16 20:42:00,
2013-06-16 15:53:00,79.0,54.0,30.03,WSW,240,14.0,21.0,41,-99.99,,,-99.99,,2013-06-16 20:53:00,
2013-06-16 16:01:00,79.0,54.0,30.03,WSW,240,14.0,21.0,41,-99.99,,,-99.99,,2013-06-16 21:01:00,
2013-06-16 16:11:00,77.0,55.0,30.02,WSW,240,10.0,-999.0,47,-99.99,,,-99.99,,2013-06-16 21:11:00,
2013-06-16 16:22:00,77.0,55.0,30.02,WSW,240,10.0,-999.0,47,-99.99,,,-99.99,,2013-06-16 21:22:00,
2013-06-16 16:32:00,77.0,57.0,30.00,WSW,240,10.0,17.0,50,-99.99,,,-99.99,,2013-06-16 21:32:00,
2013-06-16 16:42:00,77.0,57.0,30.00,WSW,240,10.0,17.0,50,-99.99,,,-99.99,,2013-06-16 21:42:00,
2013-06-16 16:53:00,77.0,57.0,29.97,SW,230,8.0,-999.0,50,-99.99,,,-99.99,,2013-06-16 21:53:00,
2013-06-16 17:01:00,77.0,57.0,29.97,SW,230,8.0,-999.0,50,-99.99,,,-99.99,,2013-06-16 22:01:00,
2013-06-16 17:12:00,77.0,57.0,29.97,SW,230,8.0,-999.0,50,-99.99,,,-99.99,,2013-06-16 22:12:00,
2013-06-16 17:22:00,77.0,57.0,29.97,SW,230,8.0,-999.0,50,-99.99,,,-99.99,,2013-06-16 22:22:00,
2013-06-16 17:32:00,77.0,59.0,29.97,WSW,240,7.0,-999.0,53,-99.99,,,-99.99,,2013-06-16 22:32:00,
2013-06-16 17:42:00,77.0,59.0,29.97,WSW,240,7.0,-999.0,53,-99.99,,,-99.99,,2013-06-16 22:42:00,
2013-06-16 17:52:00,77.0,57.0,29.96,SW,230,5.0,-999.0,50,-99.99,,,-99.99,,2013-06-16 22:52:00,
2013-06-16 18:01:00,77.0,57.0,29.96,SW,230,5.0,-999.0,50,-99.99,,,-99.99,,2013-06-16 23:01:00,
2013-06-16 18:11:00,77.0,57.0,29.96,North,0,0.0,-999.0,50,-99.99,,,-99.99,,2013-06-16 23:11:00,
2013-06-16 18:22:00,77.0,57.0,29.96,North,0,0.0,-999.0,50,-99.99,,,-99.99,,2013-06-16 23:22:00,
2013-06-16 18:32:00,79.0,55.0,29.95,North,0,0.0,-999.0,44,-99.99,,,-99.99,,2013-06-16 23:32:00,
2013-06-16 18:42:00,79.0,55.0,29.95,North,0,0.0,-999.0,44,-99.99,,,-99.99,,2013-06-16 23:42:00,
2013-06-16 18:51:00,79.0,57.0,29.95,North,0,0.0,-999.0,47,-99.99,,,-99.99,,2013-06-16 23:51:00,
2013-06-16 19:02:00,79.0,57.0,29.95,North,0,0.0,-999.0,47,-99.99,,,-99.99,,2013-06-17 00:02:00,
2013-06-16 19:11:00,79.0,55.0,29.95,NW,320,5.0,-999.0,44,-99.99,,,-99.99,,2013-06-17 00:11:00,
2013-06-16 19:22:00,79.0,55.0,29.95,NW,320,5.0,-999.0,44,-99.99,,,-99.99,,2013-06-17 00:22:00,
2013-06-16 19:32:00,79.0,54.0,29.95,North,0,0.0,-999.0,41,-99.99,,,-99.99,,2013-06-17 00:32:00,
2013-06-16 19:43:00,79.0,54.0,29.95,North,0,0.0,-999.0,41,-99.99,,,-99.99,,2013-06-17 00:43:00,
2013-06-16 19:52:00,79.0,54.0,29.97,North,0,0.0,-999.0,41,-99.99,,,-99.99,,2013-06-17 00:52:00,
2013-06-16 20:02:00,79.0,54.0,29.97,North,0,0.0,-999.0,41,-99.99,,,-99.99,,2013-06-17 01:02:00,
2013-06-16 20:11:00,77.0,54.0,29.98,North,0,0.0,-999.0,44,-99.99,,,-99.99,,2013-06-17 01:11:00,
2013-06-16 20:22:00,77.0,54.0,29.98,North,0,0.0,-999.0,44,-99.99,,,-99.99,,2013-06-17 01:22:00,
2013-06-16 20:32:00,77.0,55.0,29.99,North,0,0.0,-999.0,47,-99.99,,,-99.99,,2013-06-17 01:32:00,
2013-06-16 20:43:00,77.0,55.0,29.99,North,0,0.0,-999.0,47,-99.99,,,-99.99,,2013-06-17 01:43:00,
2013-06-16 20:53:00,75.0,61.0,30.00,North,0,0.0,-999.0,60,-99.99,,,-99.99,,2013-06-17 01:53:00,
2013-06-16 21:02:00,75.0,61.0,30.00,North,0,0.0,-999.0,60,-99.99,,,-99.99,,2013-06-17 02:02:00,
2013-06-16 21:12:00,75.0,57.0,29.99,North,0,0.0,-999.0,53,-99.99,,,-99.99,,2013-06-17 02:12:00,
2013-06-16 21:22:00,75.0,57.0,29.99,North,0,0.0,-999.0,53,-99.99,,,-99.99,,2013-06-17 02:22:00,
2013-06-16 21:34:00,73.0,57.0,29.99,North,0,0.0,-999.0,56,-99.99,,,-99.99,,2013-06-17 02:34:00,
2013-06-16 21:43:00,73.0,57.0,29.99,North,0,0.0,-999.0,56,-99.99,,,-99.99,,2013-06-17 02:43:00,
2013-06-16 21:53:00,73.0,61.0,29.99,WNW,290,6.0,-999.0,64,-99.99,,,-99.99,,2013-06-17 02:53:00,
2013-06-16 22:02:00,73.0,61.0,29.99,WNW,290,6.0,-999.0,64,-99.99,,,-99.99,,2013-06-17 03:02:00,
2013-06-16 22:12:00,72.0,61.0,29.99,WSW,250,9.0,-999.0,68,-99.99,,,-99.99,,2013-06-17 03:12:00,
2013-06-16 22:22:00,72.0,61.0,29.99,WSW,250,9.0,-999.0,68,-99.99,,,-99.99,,2013-06-17 03:22:00,
2013-06-16 22:33:00,70.0,61.0,30.00,WSW,240,6.0,-999.0,73,-99.99,,,-99.99,,2013-06-17 03:33:00,
2013-06-16 22:44:00,70.0,61.0,30.00,WSW,240,6.0,-999.0,73,-99.99,,,-99.99,,2013-06-17 03:44:00,
2013-06-16 22:53:00,70.0,63.0,30.01,SW,230,7.0,-999.0,77,-99.99,,,-99.99,,2013-06-17 03:53:00,
2013-06-16 23:02:00,70.0,63.0,30.01,SW,230,7.0,-999.0,77,-99.99,,,-99.99,,2013-06-17 04:02:00,
2013-06-16 23:12:00,66.0,61.0,30.02,SW,230,9.0,-999.0,82,-99.99,,,-99.99,,2013-06-17 04:12:00,
2013-06-16 23:22:00,66.0,61.0,30.02,SW,230,9.0,-999.0,82,-99.99,,,-99.99,,2013-06-17 04:22:00,
2013-06-16 23:34:00,66.0,61.0,30.01,SW,230,5.0,-999.0,82,-99.99,,,-99.99,,2013-06-17 04:34:00,
2013-06-16 23:42:00,66.0,61.0,30.01,SW,230,5.0,-999.0,82,-99.99,,,-99.99,,2013-06-17 04:42:00,
2013-06-16 23:53:00,66.0,61.0,30.01,WSW,240,6.0,-999.0,82,-99.99,,,-99.99,,2013-06-17 04:53:00,